Time;durP1;ratioP1;P1;durP2;ratioP2;P2;SDS_P1;SDS_P2;PMS_P1;PMS_P2;Temp;Humidity;BMP_temperature;BMP_pressure;BME280_temperature;BME280_humidity;BME280_pressure;Samples;Min_cycle;Max_cycle;Signal;HPM_P1;HPM_P2
2021/03/07 00:02:01;;;;;;;2.63;1.20;;;;;;;25.44;27.70;97463.56;4995896;28;20042;-34
2021/03/07 00:04:26;;;;;;;3.65;1.25;;;;;;;25.43;27.86;97459.19;4999366;28;20026;-32
2021/03/07 00:06:51;;;;;;;2.88;1.35;;;;;;;25.45;27.91;97460.00;4999151;28;20028;-37
2021/03/07 00:09:17;;;;;;;7.32;1.38;;;;;;;25.44;27.86;97460.94;4992144;28;20036;-32
2021/03/07 00:11:42;;;;;;;2.00;1.08;;;;;;;25.44;27.95;97455.69;4999648;28;20088;-30
2021/03/07 00:14:08;;;;;;;3.78;1.50;;;;;;;25.44;27.93;97458.31;4998294;28;20429;-31
2021/03/07 00:16:33;;;;;;;3.17;1.38;;;;;;;25.43;27.77;97460.06;5001679;28;20476;-32
2021/03/07 00:18:58;;;;;;;3.67;1.20;;;;;;;25.43;27.89;97454.81;5001738;28;20682;-30
2021/03/07 00:21:24;;;;;;;2.28;1.30;;;;;;;25.43;27.74;97454.81;4994366;28;20033;-32
2021/03/07 00:23:49;;;;;;;4.20;1.65;;;;;;;25.43;27.83;97451.31;5006681;28;20018;-32
2021/03/07 00:26:15;;;;;;;2.38;1.10;;;;;;;25.42;27.65;97444.38;4996332;28;20487;-34
2021/03/07 00:28:40;;;;;;;2.88;1.10;;;;;;;25.43;27.86;97446.06;4999217;28;20391;-32
2021/03/07 00:31:05;;;;;;;2.08;1.23;;;;;;;25.41;27.91;97440.06;5000314;28;20045;-35
2021/03/07 00:33:31;;;;;;;1.90;1.20;;;;;;;25.41;27.85;97442.69;5003469;28;20029;-36
2021/03/07 00:35:56;;;;;;;2.35;1.40;;;;;;;25.41;27.76;97429.56;5000469;28;20042;-33
2021/03/07 00:38:22;;;;;;;2.08;1.30;;;;;;;25.41;27.74;97437.44;5002893;28;20025;-32
2021/03/07 00:40:47;;;;;;;1.83;1.23;;;;;;;25.41;27.70;97437.44;5004071;28;20040;-30
2021/03/07 00:43:12;;;;;;;3.75;1.63;;;;;;;25.40;27.76;97435.72;5004058;28;20033;-34
2021/03/07 00:45:38;;;;;;;4.65;1.38;;;;;;;25.41;27.76;97434.81;5002244;28;20034;-31
2021/03/07 00:48:04;;;;;;;5.50;1.23;;;;;;;25.40;27.67;97427.84;5004337;28;20030;-32
2021/03/07 00:50:29;;;;;;;3.65;1.05;;;;;;;25.40;27.74;97427.84;5003019;28;20021;-31
2021/03/07 00:52:55;;;;;;;1.40;1.08;;;;;;;25.39;27.91;97420.88;5005042;28;20030;-32
2021/03/07 00:55:20;;;;;;;2.63;1.27;;;;;;;25.39;27.76;97429.63;4983994;28;20034;-34
2021/03/07 00:57:46;;;;;;;2.22;1.20;;;;;;;25.40;27.72;97427.84;5001290;28;20044;-33
2021/03/07 01:00:16;;;;;;;5.40;1.48;;;;;;;25.39;27.71;97434.00;4978798;28;20022;-32
2021/03/07 01:02:41;;;;;;;2.92;1.30;;;;;;;25.39;27.76;97424.38;5001717;28;20029;-33
2021/03/07 01:05:07;;;;;;;3.90;1.50;;;;;;;25.39;27.54;97420.88;4998181;28;20037;-31
2021/03/07 01:07:33;;;;;;;4.55;1.38;;;;;;;25.38;27.61;97420.03;5000464;28;20056;-30
2021/03/07 01:09:58;;;;;;;3.08;1.10;;;;;;;25.39;27.59;97428.75;4990261;28;20034;-33
2021/03/07 01:12:23;;;;;;;2.63;1.33;;;;;;;25.38;27.74;97421.81;5002825;28;20038;-31
2021/03/07 01:14:50;;;;;;;1.83;1.08;;;;;;;25.37;27.63;97414.84;4995876;28;20022;-34
2021/03/07 01:17:15;;;;;;;2.50;1.35;;;;;;;25.36;27.83;97414.00;5005888;28;20042;-33
2021/03/07 01:19:40;;;;;;;2.38;1.20;;;;;;;25.36;27.83;97415.78;5001629;28;20060;-32
2021/03/07 01:22:06;;;;;;;7.53;1.42;;;;;;;25.35;27.71;97412.28;4997054;28;20045;-32
2021/03/07 01:24:31;;;;;;;2.95;1.42;;;;;;;25.35;27.61;97417.53;5002380;28;20028;-31
2021/03/07 01:26:56;;;;;;;2.15;1.27;;;;;;;25.35;27.81;97406.22;4982764;28;20041;-33
2021/03/07 01:29:22;;;;;;;3.08;1.33;;;;;;;25.34;27.67;97410.59;4997554;28;20033;-32
2021/03/07 01:31:47;;;;;;;3.42;1.40;;;;;;;25.34;27.72;97407.97;4999522;28;20042;-33
2021/03/07 01:34:13;;;;;;;3.63;1.30;;;;;;;25.30;27.84;97399.38;4986320;28;20542;-32
2021/03/07 01:36:38;;;;;;;2.38;1.52;;;;;;;25.34;27.65;97401.84;5006309;28;20033;-34
2021/03/07 01:39:04;;;;;;;2.25;1.40;;;;;;;25.31;27.62;97398.47;5003249;28;20032;-32
2021/03/07 01:41:29;;;;;;;5.78;1.63;;;;;;;25.31;27.85;97390.59;4988014;28;20588;-32
2021/03/07 01:43:55;;;;;;;4.75;1.48;;;;;;;25.31;27.81;97389.72;5002522;28;20030;-34
2021/03/07 01:46:20;;;;;;;2.03;1.30;;;;;;;25.30;27.54;97381.03;4996142;28;20042;-32
2021/03/07 01:48:45;;;;;;;2.22;1.25;;;;;;;25.30;27.64;97378.41;4982308;28;20026;-33
2021/03/07 01:51:11;;;;;;;2.88;1.40;;;;;;;25.29;27.63;97366.19;4984744;28;20053;-32
2021/03/07 01:53:36;;;;;;;2.65;1.40;;;;;;;25.30;27.67;97382.78;4991855;28;20030;-32
2021/03/07 01:56:02;;;;;;;2.53;1.50;;;;;;;25.29;27.72;97375.84;4980880;28;20034;-32
2021/03/07 01:58:28;;;;;;;2.03;1.40;;;;;;;25.28;27.67;97364.47;4989497;28;20124;-32
2021/03/07 02:00:54;;;;;;;1.45;1.20;;;;;;;25.28;27.69;97366.25;5001596;28;20046;-31
2021/03/07 02:03:20;;;;;;;2.97;1.52;;;;;;;25.27;27.84;97352.28;4998688;28;20035;-32
2021/03/07 02:05:46;;;;;;;2.30;1.20;;;;;;;25.27;27.74;97357.53;5002068;28;20053;-33
2021/03/07 02:08:11;;;;;;;2.33;1.00;;;;;;;25.26;27.79;97347.97;5001442;28;20722;-32
2021/03/07 02:10:38;;;;;;;2.20;1.30;;;;;;;25.27;27.75;97346.16;5005349;28;20034;-32
2021/03/07 02:13:12;;;;;;;2.13;1.42;;;;;;;25.26;27.64;97340.09;4983646;28;20069;-32
2021/03/07 02:15:39;;;;;;;4.32;1.52;;;;;;;25.26;27.79;97340.09;5002226;28;20690;-33
2021/03/07 02:18:05;;;;;;;3.28;1.20;;;;;;;25.26;27.64;97334.84;4967196;28;20041;-32
2021/03/07 02:20:31;;;;;;;2.35;1.27;;;;;;;25.26;27.60;97328.75;4996937;28;20041;-32
2021/03/07 02:23:02;;;;;;;2.83;1.50;;;;;;;25.24;27.50;97331.41;4990257;28;20104;-32
2021/03/07 02:25:28;;;;;;;2.65;1.20;;;;;;;25.24;27.84;97322.72;4998719;28;20401;-33
2021/03/07 02:27:54;;;;;;;2.20;1.40;;;;;;;25.23;27.79;97319.22;4989245;28;20095;-33
2021/03/07 02:30:20;;;;;;;2.47;1.42;;;;;;;25.23;27.71;97313.97;4981535;28;20026;-33
2021/03/07 02:33:08;;;;;;;2.08;1.27;;;;;;;25.24;27.66;97314.84;4984300;28;20390;-32
2021/03/07 02:35:33;;;;;;;2.25;1.23;;;;;;;25.23;27.56;97308.75;4973153;28;20504;-31
2021/03/07 02:37:59;;;;;;;1.55;1.00;;;;;;;25.23;27.82;97306.13;4972576;28;20030;-32
2021/03/07 02:40:27;;;;;;;7.78;2.47;;;;;;;25.22;27.00;97301.78;4986941;28;20038;-34
2021/03/07 02:42:52;;;;;;;3.78;2.05;;;;;;;25.21;27.06;97297.47;4983566;28;20634;-32
2021/03/07 02:45:20;;;;;;;3.25;1.50;;;;;;;25.22;27.31;97298.31;4959254;28;20040;-31
2021/03/07 02:47:50;;;;;;;3.72;1.48;;;;;;;25.21;27.37;97294.84;4995319;28;20057;-33
2021/03/07 02:50:19;;;;;;;2.67;1.40;;;;;;;25.20;27.66;97298.38;5001479;28;20026;-34
2021/03/07 02:52:52;;;;;;;2.97;1.40;;;;;;;25.20;27.53;97294.91;4986417;28;20025;-35
2021/03/07 02:55:18;;;;;;;2.85;1.60;;;;;;;25.18;27.78;97292.34;4991225;28;20030;-31
2021/03/07 02:57:43;;;;;;;7.10;1.58;;;;;;;25.18;27.58;97290.56;4990520;28;20026;-37
2021/03/07 03:00:09;;;;;;;2.90;1.30;;;;;;;25.18;27.78;97289.72;5002145;28;20025;-30
2021/03/07 03:02:35;;;;;;;1.65;1.27;;;;;;;25.18;27.59;97281.84;5003515;28;20018;-33
2021/03/07 03:05:00;;;;;;;2.50;1.30;;;;;;;25.17;27.71;97282.78;4994285;28;20038;-32
2021/03/07 03:07:27;;;;;;;5.40;1.50;;;;;;;25.17;27.87;97272.28;4980139;28;20037;-30
2021/03/07 03:09:55;;;;;;;1.77;1.17;;;;;;;25.16;27.58;97276.69;4984569;28;20029;-33
2021/03/07 03:12:20;;;;;;;2.47;1.52;;;;;;;25.16;27.47;97278.44;4981491;28;20108;-29
2021/03/07 03:14:46;;;;;;;1.67;1.05;;;;;;;25.17;27.61;97277.53;4969990;28;20058;-32
2021/03/07 03:17:11;;;;;;;2.10;1.10;;;;;;;25.16;27.52;97276.69;5004346;28;20044;-32
2021/03/07 03:19:36;;;;;;;1.25;1.13;;;;;;;25.15;27.58;97280.22;4978366;28;20033;-33
2021/03/07 03:22:02;;;;;;;1.60;1.00;;;;;;;25.14;27.55;97272.41;4969962;28;20030;-34
2021/03/07 03:24:27;;;;;;;2.50;1.20;;;;;;;25.16;27.57;97278.44;4982082;28;20608;-32
2021/03/07 03:27:01;;;;;;;1.90;1.35;;;;;;;25.15;27.81;97268.88;4975834;28;20246;-33
2021/03/07 03:29:28;;;;;;;1.77;1.25;;;;;;;25.15;27.81;97264.47;5001179;28;20038;-34
2021/03/07 03:31:53;;;;;;;1.58;1.10;;;;;;;25.15;27.61;97261.00;5002862;28;20410;-32
2021/03/07 03:34:19;;;;;;;1.80;1.00;;;;;;;25.13;27.80;97254.97;5003146;28;20032;-32
2021/03/07 03:36:44;;;;;;;1.85;1.13;;;;;;;25.13;27.79;97255.81;5001147;28;20033;-34
2021/03/07 03:39:14;;;;;;;1.25;1.08;;;;;;;25.12;27.79;97248.00;4996667;28;20027;-31
2021/03/07 03:41:41;;;;;;;2.63;1.25;;;;;;;25.13;27.77;97249.75;4966265;28;20030;-33
2021/03/07 03:44:08;;;;;;;2.33;1.30;;;;;;;25.11;27.84;97246.31;4987515;28;20418;-33
2021/03/07 03:46:37;;;;;;;2.80;1.20;;;;;;;25.13;27.62;97249.75;5004112;28;20033;-31
2021/03/07 03:49:07;;;;;;;3.35;1.10;;;;;;;25.12;27.68;97242.75;4999597;28;20033;-34
2021/03/07 03:51:36;;;;;;;1.17;0.93;;;;;;;25.10;27.64;97250.72;4991653;28;20037;-33
2021/03/07 03:54:02;;;;;;;4.82;1.45;;;;;;;25.10;27.70;97234.13;4993589;28;20037;-33
2021/03/07 03:56:28;;;;;;;2.97;1.50;;;;;;;25.10;27.83;97240.22;4982478;28;20029;-34
2021/03/07 03:58:53;;;;;;;1.83;1.02;;;;;;;25.10;27.80;97245.47;4982833;28;20246;-33
2021/03/07 04:01:18;;;;;;;1.88;1.13;;;;;;;25.09;27.79;97243.75;4982169;28;20034;-32
2021/03/07 04:03:49;;;;;;;2.47;0.95;;;;;;;25.08;27.64;97246.44;4985623;28;20026;-32
2021/03/07 04:06:19;;;;;;;1.33;1.03;;;;;;;25.08;27.83;97241.19;4954395;28;20041;-32
2021/03/07 04:08:44;;;;;;;1.65;1.08;;;;;;;25.08;27.71;97243.81;4983151;28;20056;-33
2021/03/07 04:11:09;;;;;;;2.20;1.23;;;;;;;25.06;27.71;97238.66;4955420;28;20081;-31
2021/03/07 04:13:35;;;;;;;5.03;1.20;;;;;;;25.05;27.71;97243.03;4966318;28;20034;-36
2021/03/07 04:16:00;;;;;;;1.60;1.20;;;;;;;25.07;27.55;97236.88;4988405;28;20687;-33
2021/03/07 04:18:26;;;;;;;1.02;0.90;;;;;;;25.07;27.83;97239.50;4955015;28;20037;-33
2021/03/07 04:20:52;;;;;;;2.92;1.10;;;;;;;25.07;27.65;97239.50;4966008;28;20018;-32
2021/03/07 04:23:17;;;;;;;1.75;1.10;;;;;;;25.07;27.61;97244.75;4955672;28;20041;-31
2021/03/07 04:25:43;;;;;;;2.45;1.10;;;;;;;25.07;27.87;97239.50;4969686;28;20030;-29
2021/03/07 04:28:09;;;;;;;2.67;1.10;;;;;;;25.07;27.55;97244.75;4951132;28;20041;-32
2021/03/07 04:30:35;;;;;;;2.25;1.20;;;;;;;25.06;27.73;97243.91;4962486;28;20045;-35
2021/03/07 04:33:01;;;;;;;1.45;1.13;;;;;;;25.07;27.73;97239.50;4983265;28;21701;-31
2021/03/07 04:35:27;;;;;;;1.08;0.95;;;;;;;25.07;27.71;97239.50;4985392;28;20405;-33
2021/03/07 04:37:52;;;;;;;1.65;1.00;;;;;;;25.05;27.66;97235.19;4970014;28;20422;-31
2021/03/07 04:40:18;;;;;;;3.58;1.20;;;;;;;25.07;27.60;97232.50;4966669;28;20038;-35
2021/03/07 04:42:43;;;;;;;3.35;1.27;;;;;;;25.07;27.50;97229.88;4982492;28;20065;-34
2021/03/07 04:45:13;;;;;;;1.60;1.20;;;;;;;25.07;27.75;97235.13;4969024;28;20088;-32
2021/03/07 04:47:39;;;;;;;2.40;1.10;;;;;;;25.07;27.67;97235.13;4984967;28;20109;-32
2021/03/07 04:50:05;;;;;;;3.45;1.17;;;;;;;25.07;27.53;97234.25;4982786;28;20021;-30
2021/03/07 04:52:30;;;;;;;2.30;1.38;;;;;;;25.07;27.72;97229.00;4983227;28;20096;-32
2021/03/07 04:54:56;;;;;;;1.00;0.80;;;;;;;25.08;27.52;97220.22;4985230;28;20494;-33
2021/03/07 04:57:21;;;;;;;2.28;1.00;;;;;;;25.08;27.78;97220.22;4982749;28;20029;-32
2021/03/07 04:59:46;;;;;;;2.17;1.20;;;;;;;25.08;27.71;97212.34;4964449;28;20034;-30
2021/03/07 05:02:12;;;;;;;1.73;1.25;;;;;;;25.05;27.67;97210.72;4985277;28;20030;-32
2021/03/07 05:04:37;;;;;;;3.95;1.45;;;;;;;25.08;27.76;97217.59;4984964;28;20053;-34
2021/03/07 05:07:03;;;;;;;1.58;1.20;;;;;;;25.07;27.76;97214.13;4982807;28;20113;-33
2021/03/07 05:09:29;;;;;;;2.33;1.27;;;;;;;25.07;27.41;97210.66;4986113;28;20371;-32
2021/03/07 05:11:54;;;;;;;2.78;1.20;;;;;;;25.07;27.56;97205.41;4988078;28;20025;-32
2021/03/07 05:14:19;;;;;;;1.13;1.02;;;;;;;25.07;27.65;97197.53;4970477;28;20571;-31
2021/03/07 05:16:45;;;;;;;4.15;1.23;;;;;;;25.07;27.80;97202.78;4988034;28;20054;-36
2021/03/07 05:19:10;;;;;;;1.90;1.20;;;;;;;25.07;27.65;97194.91;4968693;28;20034;-31
2021/03/07 05:21:36;;;;;;;9.98;1.50;;;;;;;25.05;27.58;97190.59;4986854;28;20034;-32
2021/03/07 05:24:02;;;;;;;1.83;1.20;;;;;;;25.07;27.53;97192.28;4988550;28;20029;-32
2021/03/07 05:26:27;;;;;;;1.38;1.00;;;;;;;25.07;27.63;97192.28;4987144;28;20061;-36
2021/03/07 05:28:53;;;;;;;1.67;1.20;;;;;;;25.07;27.51;97201.03;4991437;28;20821;-34
2021/03/07 05:31:19;;;;;;;1.70;1.30;;;;;;;25.07;27.79;97190.53;4992075;28;20633;-33
2021/03/07 05:33:44;;;;;;;2.78;0.98;;;;;;;25.08;27.44;97183.50;4989873;28;20034;-31
2021/03/07 05:36:09;;;;;;;2.65;1.20;;;;;;;25.08;27.52;97188.75;4985555;28;20022;-33
2021/03/07 05:38:35;;;;;;;1.90;1.13;;;;;;;25.09;27.44;97187.84;4984507;28;20076;-33
2021/03/07 05:41:00;;;;;;;2.47;1.40;;;;;;;25.09;27.54;97178.19;4985569;28;20045;-30
2021/03/07 05:43:26;;;;;;;1.10;1.00;;;;;;;25.10;27.64;97194.78;4988613;28;20038;-35
2021/03/07 05:45:51;;;;;;;1.60;1.10;;;;;;;25.10;27.42;97186.94;4987158;28;20061;-33
2021/03/07 05:48:17;;;;;;;2.00;1.40;;;;;;;25.10;27.45;97181.69;4987928;28;20122;-33
2021/03/07 05:50:42;;;;;;;1.95;1.15;;;;;;;25.09;27.51;97190.47;4988300;28;20025;-32
2021/03/07 05:53:08;;;;;;;1.55;1.17;;;;;;;25.10;27.50;97181.69;4985415;28;20026;-38
2021/03/07 05:55:33;;;;;;;3.85;1.30;;;;;;;25.11;27.43;97178.13;4956447;28;20040;-31
2021/03/07 05:57:59;;;;;;;1.30;1.05;;;;;;;25.11;27.57;97172.88;4985186;28;20118;-34
2021/03/07 06:00:25;;;;;;;3.55;1.17;;;;;;;25.11;27.48;97175.50;4988363;28;20022;-32
2021/03/07 06:02:50;;;;;;;3.83;1.40;;;;;;;25.12;27.62;97166.72;4971609;28;20036;-31
2021/03/07 06:05:16;;;;;;;2.03;1.20;;;;;;;25.13;27.39;97181.56;4986835;28;20045;-34
2021/03/07 06:07:42;;;;;;;1.40;1.10;;;;;;;25.12;27.62;97169.34;4985405;28;20607;-33
2021/03/07 06:10:11;;;;;;;2.97;1.30;;;;;;;25.12;27.61;97170.19;4987043;28;20042;-36
2021/03/07 06:12:37;;;;;;;1.50;1.20;;;;;;;25.13;27.37;97171.06;4987597;28;20030;-34
2021/03/07 06:15:03;;;;;;;1.38;1.20;;;;;;;25.14;27.42;97162.28;4971264;28;20033;-33
2021/03/07 06:17:44;;;;;;;1.60;1.20;;;;;;;25.13;27.51;97157.94;4985127;28;20038;-33
2021/03/07 06:20:14;;;;;;;2.13;1.35;;;;;;;25.10;27.46;97150.22;4984280;28;20585;-33
2021/03/07 06:23:01;;;;;;;1.67;1.20;;;;;;;25.14;27.54;97154.41;4989366;28;20746;-30
2021/03/07 06:25:26;;;;;;;1.58;1.30;;;;;;;25.15;27.40;97161.34;4980081;28;20034;-36
2021/03/07 06:27:52;;;;;;;3.80;1.20;;;;;;;25.15;27.57;97164.81;5002512;28;20025;-34
2021/03/07 06:30:24;;;;;;;3.05;1.33;;;;;;;25.15;27.35;97169.22;5003509;28;20045;-32
2021/03/07 06:32:54;;;;;;;1.35;1.13;;;;;;;25.14;27.37;97157.84;5005040;28;20022;-32
2021/03/07 06:35:31;;;;;;;2.30;1.33;;;;;;;25.15;27.26;97164.81;5002183;28;20034;-34
2021/03/07 06:38:04;;;;;;;2.97;1.40;;;;;;;25.15;27.51;97156.97;5003754;28;20046;-31
2021/03/07 06:40:36;;;;;;;2.80;1.30;;;;;;;25.16;27.31;97156.03;4996619;28;20481;-33
2021/03/07 06:43:03;;;;;;;2.53;1.30;;;;;;;25.17;27.49;97157.72;4998198;28;20042;-33
2021/03/07 06:45:36;;;;;;;2.45;1.20;;;;;;;25.17;27.26;97157.72;4996288;28;20025;-31
2021/03/07 06:48:02;;;;;;;2.58;1.50;;;;;;;25.17;27.28;97162.97;5004925;28;20025;-33
2021/03/07 06:50:27;;;;;;;2.03;1.30;;;;;;;25.18;27.45;97158.59;5006610;28;20060;-34
2021/03/07 06:52:57;;;;;;;1.90;1.23;;;;;;;25.19;27.28;97160.28;4989289;28;20457;-31
2021/03/07 06:55:27;;;;;;;2.05;1.50;;;;;;;25.19;27.26;97160.28;5003801;28;20041;-32
2021/03/07 06:57:53;;;;;;;4.72;1.50;;;;;;;25.20;27.32;97161.97;4998717;28;20510;-33
2021/03/07 07:00:35;;;;;;;2.60;1.40;;;;;;;25.21;27.46;97161.09;4995136;28;20327;-34
2021/03/07 07:03:14;;;;;;;1.90;1.13;;;;;;;25.22;27.28;97156.69;5005421;28;20211;-34
2021/03/07 07:05:42;;;;;;;3.03;1.52;;;;;;;25.23;27.45;97161.84;5002730;28;20030;-32
2021/03/07 07:08:08;;;;;;;2.22;1.55;;;;;;;25.22;27.21;97165.41;5000491;28;20072;-30
2021/03/07 07:10:52;;;;;;;2.10;1.60;;;;;;;25.21;27.30;97160.22;4970691;28;20026;-31
2021/03/07 07:13:21;;;;;;;1.73;1.40;;;;;;;25.24;27.24;97158.31;5001819;28;20111;-34
2021/03/07 07:16:05;;;;;;;2.63;1.92;;;;;;;25.24;27.21;97154.84;5002959;28;20034;-33
2021/03/07 07:18:32;;;;;;;2.13;1.77;;;;;;;25.25;27.46;97165.25;4993169;28;20831;-32
2021/03/07 07:20:58;;;;;;;3.25;2.03;;;;;;;25.25;27.16;97159.16;5002782;28;20412;-30
2021/03/07 07:23:24;;;;;;;3.80;2.38;;;;;;;25.25;27.28;97154.75;4981645;28;20030;-32
2021/03/07 07:25:50;;;;;;;3.33;2.08;;;;;;;25.24;27.50;97153.06;4985913;28;20041;-31
2021/03/07 07:28:15;;;;;;;8.48;1.95;;;;;;;25.24;27.31;97147.81;4984543;28;20104;-34
2021/03/07 07:30:41;;;;;;;9.88;2.10;;;;;;;25.24;27.32;97145.19;5002623;28;20717;-31
2021/03/07 07:33:10;;;;;;;5.45;1.90;;;;;;;25.24;27.32;97147.81;4986650;28;20161;-30
2021/03/07 07:35:35;;;;;;;4.50;1.98;;;;;;;25.23;27.41;97146.13;4980626;28;20104;-29
2021/03/07 07:38:01;;;;;;;6.07;2.40;;;;;;;25.23;27.17;97140.88;4984733;28;20511;-33
2021/03/07 07:40:41;;;;;;;7.40;2.00;;;;;;;25.23;27.28;97146.13;4975261;28;20045;-32
2021/03/07 07:43:06;;;;;;;9.90;3.03;;;;;;;25.24;27.15;97142.56;4996283;28;20034;-29
2021/03/07 07:45:32;;;;;;;10.68;3.65;;;;;;;25.24;26.51;97145.19;4976821;28;20041;-34
2021/03/07 07:47:57;;;;;;;8.63;2.45;;;;;;;25.24;26.76;97147.81;4964544;28;20048;-35
2021/03/07 07:50:34;;;;;;;2.63;2.00;;;;;;;25.23;27.15;97150.50;4995555;28;20022;-33
2021/03/07 07:53:19;;;;;;;4.45;1.95;;;;;;;25.24;27.51;97150.44;4978651;28;20407;-35
2021/03/07 07:55:56;;;;;;;5.25;2.00;;;;;;;25.25;27.38;97146.06;4987596;28;20107;-34
2021/03/07 07:58:34;;;;;;;6.72;2.55;;;;;;;25.26;27.82;97153.00;4976193;28;20052;-31
2021/03/07 08:01:00;;;;;;;4.63;1.95;;;;;;;25.26;27.86;97146.00;4995184;28;20041;-33
2021/03/07 08:03:39;;;;;;;3.65;1.92;;;;;;;25.28;27.83;97149.38;4996854;28;20164;-32
2021/03/07 08:06:05;;;;;;;5.45;2.10;;;;;;;25.29;28.02;97145.81;4990205;28;20368;-31
2021/03/07 08:08:37;;;;;;;8.00;2.10;;;;;;;25.30;27.90;97146.69;4997566;28;20522;-31
2021/03/07 08:11:07;;;;;;;5.55;1.80;;;;;;;25.30;27.97;97144.94;4994704;28;20030;-33
2021/03/07 08:13:35;;;;;;;3.35;1.80;;;;;;;25.34;27.91;97147.38;4993698;28;20465;-32
2021/03/07 08:16:01;;;;;;;2.70;1.42;;;;;;;25.35;28.02;97139.47;4993724;28;20648;-32
2021/03/07 08:18:56;;;;;;;4.18;1.98;;;;;;;25.36;28.10;97135.06;4994635;28;20033;-33
2021/03/07 08:21:23;;;;;;;3.13;1.70;;;;;;;25.37;28.08;97126.28;4990903;28;20061;-32
2021/03/07 08:24:05;;;;;;;8.27;1.92;;;;;;;25.39;28.12;97137.53;4996371;28;20033;-32
2021/03/07 08:26:42;;;;;;;2.80;1.70;;;;;;;25.40;28.26;97134.00;4994361;28;20040;-34
2021/03/07 08:29:36;;;;;;;2.30;1.42;;;;;;;25.40;28.29;97131.38;4993775;28;20556;-32
2021/03/07 08:32:34;;;;;;;4.25;1.60;;;;;;;25.42;28.09;97119.03;4994265;28;20291;-33
2021/03/07 08:35:12;;;;;;;4.63;1.48;;;;;;;25.44;27.98;97122.47;4997705;28;20034;-33
2021/03/07 08:37:37;;;;;;;3.45;1.50;;;;;;;25.46;28.12;97120.59;4975835;28;20026;-34
2021/03/07 08:40:29;;;;;;;4.22;1.67;;;;;;;25.48;28.05;97117.91;4998854;28;20052;-34
2021/03/07 08:42:56;;;;;;;3.72;1.70;;;;;;;25.50;28.11;97119.53;4994446;28;20034;-33
2021/03/07 08:45:22;;;;;;;4.65;1.80;;;;;;;25.51;28.18;97123.03;4996237;28;20490;-34
2021/03/07 08:47:57;;;;;;;3.17;1.35;;;;;;;25.52;28.17;97109.81;4997066;28;20101;-31
2021/03/07 08:50:23;;;;;;;2.92;1.40;;;;;;;25.54;28.17;97112.34;4997180;28;20032;-38
2021/03/07 08:52:49;;;;;;;2.97;1.27;;;;;;;25.54;28.43;97102.72;4995561;28;20037;-32
2021/03/07 08:55:14;;;;;;;2.92;1.60;;;;;;;25.56;28.14;97111.38;4974703;28;20093;-33
2021/03/07 08:57:47;;;;;;;3.20;1.45;;;;;;;25.57;28.23;97102.63;4996132;28;20030;-31
2021/03/07 09:00:14;;;;;;;1.67;1.25;;;;;;;25.56;28.18;97106.16;4993100;28;20515;-32
2021/03/07 09:02:39;;;;;;;1.83;1.33;;;;;;;25.60;28.17;97106.00;4995382;28;20075;-32
2021/03/07 09:05:25;;;;;;;4.82;1.60;;;;;;;25.60;28.35;97106.00;4963151;28;20046;-35
2021/03/07 09:08:02;;;;;;;4.13;1.63;;;;;;;25.60;28.42;97106.00;4995990;28;20036;-31
2021/03/07 09:10:32;;;;;;;3.97;1.67;;;;;;;25.59;28.44;97104.31;4994893;28;20030;-32
2021/03/07 09:13:25;;;;;;;2.45;1.83;;;;;;;25.60;28.51;97100.75;4995927;28;20036;-33
2021/03/07 09:15:54;;;;;;;3.88;1.77;;;;;;;25.59;28.31;97094.66;4994912;28;20546;-34
2021/03/07 09:18:26;;;;;;;3.58;1.65;;;;;;;25.59;28.31;97093.81;4991206;28;20079;-33
2021/03/07 09:21:11;;;;;;;2.08;1.50;;;;;;;25.59;28.31;97091.19;4997069;28;20717;-35
2021/03/07 09:23:46;;;;;;;3.78;1.50;;;;;;;25.61;28.20;97089.34;4995389;28;20030;-32
2021/03/07 09:26:15;;;;;;;3.75;1.50;;;;;;;25.62;28.42;97081.38;4979446;28;20767;-32
2021/03/07 09:28:42;;;;;;;1.85;1.27;;;;;;;25.64;28.15;97081.31;5000557;28;20033;-31
2021/03/07 09:31:18;;;;;;;7.60;2.25;;;;;;;25.66;26.93;97090.00;4992337;28;20426;-33
2021/03/07 09:33:50;;;;;;;25.88;7.07;;;;;;;25.55;21.75;97078.19;4993491;28;20065;-35
2021/03/07 09:36:16;;;;;;;10.10;7.05;;;;;;;25.39;19.36;97082.44;4991479;28;20030;-33
2021/03/07 09:38:43;;;;;;;9.32;7.43;;;;;;;25.14;18.73;97073.94;4992770;28;20136;-33
2021/03/07 09:41:09;;;;;;;9.02;7.60;;;;;;;24.84;18.21;97073.56;4990576;28;20121;-33
2021/03/07 09:43:35;;;;;;;8.60;7.60;;;;;;;24.50;17.68;97079.34;4990166;28;20112;-32
2021/03/07 09:46:00;;;;;;;7.97;7.18;;;;;;;24.14;17.75;97074.78;4977027;28;20414;-34
2021/03/07 09:48:33;;;;;;;10.18;7.35;;;;;;;23.79;17.52;97074.41;4972206;28;20026;-34
2021/03/07 09:50:59;;;;;;;10.45;7.78;;;;;;;23.48;18.10;97077.34;4974307;28;20108;-32
2021/03/07 09:53:25;;;;;;;10.90;8.20;;;;;;;23.19;18.11;97073.19;4987368;28;20060;-33
2021/03/07 09:55:50;;;;;;;8.73;7.63;;;;;;;22.95;18.01;97071.44;4979239;28;20529;-31
2021/03/07 09:58:16;;;;;;;10.73;7.95;;;;;;;22.77;17.63;97077.34;4998767;28;20026;-34
2021/03/07 10:00:50;;;;;;;10.43;8.25;;;;;;;22.58;17.35;97072.78;4979353;28;20050;-33
2021/03/07 10:03:25;;;;;;;8.77;7.88;;;;;;;22.42;18.23;97075.88;4997314;28;20458;-31
2021/03/07 10:06:09;;;;;;;9.35;6.82;;;;;;;22.35;19.28;97065.72;5006065;28;20125;-32
2021/03/07 10:08:36;;;;;;;15.60;5.95;;;;;;;22.35;20.36;97056.13;4997971;28;20022;-32
2021/03/07 10:11:20;;;;;;;7.95;5.20;;;;;;;22.42;21.02;97052.38;4998746;28;20522;-32
2021/03/07 10:13:56;;;;;;;7.85;4.47;;;;;;;22.53;21.56;97054.63;4950357;28;20123;-32
2021/03/07 10:16:28;;;;;;;10.27;4.13;;;;;;;22.65;22.02;97055.97;4959081;28;20221;-31
2021/03/07 10:19:32;;;;;;;7.32;3.45;;;;;;;22.81;22.31;97047.59;4977108;28;20068;-32
2021/03/07 10:21:58;;;;;;;7.22;3.20;;;;;;;22.94;22.62;97051.44;4980471;28;20042;-31
2021/03/07 10:24:23;;;;;;;5.47;2.92;;;;;;;23.07;22.73;97048.38;4997107;28;20029;-34
2021/03/07 10:26:50;;;;;;;16.13;4.07;;;;;;;23.20;23.18;97043.53;4994599;28;22030;-34
2021/03/07 10:29:21;;;;;;;18.10;3.63;;;;;;;23.32;23.25;97031.72;5000814;28;20037;-33
2021/03/07 10:32:05;;;;;;;14.13;3.60;;;;;;;23.45;23.27;97038.22;5000568;28;20095;-33
2021/03/07 10:34:38;;;;;;;13.73;3.97;;;;;;;23.57;23.51;97033.41;5005431;28;20037;-35
2021/03/07 10:37:04;;;;;;;15.90;3.83;;;;;;;23.67;23.75;97032.13;5003262;28;20030;-33
2021/03/07 10:39:29;;;;;;;11.82;4.55;;;;;;;23.78;23.62;97036.91;5002213;28;20517;-32
2021/03/07 10:42:11;;;;;;;22.95;4.35;;;;;;;23.88;23.66;97034.78;5002480;28;20030;-31
2021/03/07 10:44:39;;;;;;;11.82;4.05;;;;;;;23.97;23.73;97037.03;4994675;28;20117;-32
2021/03/07 10:47:20;;;;;;;14.30;4.03;;;;;;;24.08;24.08;97030.47;5009264;28;20041;-34
2021/03/07 10:49:47;;;;;;;16.80;3.95;;;;;;;24.16;24.00;97032.78;4982331;28;20037;-34
2021/03/07 10:52:12;;;;;;;13.63;3.55;;;;;;;24.22;24.18;97037.78;5003603;28;20026;-33
2021/03/07 10:54:39;;;;;;;11.93;3.65;;;;;;;24.29;24.23;97035.75;5004838;28;20041;-31
2021/03/07 10:57:08;;;;;;;10.32;3.33;;;;;;;24.35;24.17;97028.47;5000603;28;20427;-33
2021/03/07 10:59:34;;;;;;;16.77;3.40;;;;;;;24.42;24.22;97021.19;4986294;28;20028;-33
2021/03/07 11:01:59;;;;;;;12.75;3.90;;;;;;;24.49;24.56;97025.22;5005658;28;20565;-33
2021/03/07 11:04:24;;;;;;;10.25;3.10;;;;;;;24.52;24.61;97027.72;4988355;28;20041;-33
2021/03/07 11:06:50;;;;;;;11.45;3.20;;;;;;;24.58;24.65;97025.75;5007474;28;20022;-34
2021/03/07 11:09:15;;;;;;;7.90;3.03;;;;;;;24.63;24.71;97024.63;5009319;28;20048;-32
2021/03/07 11:11:43;;;;;;;7.40;2.60;;;;;;;24.68;24.86;97019.19;5010706;28;20026;-31
2021/03/07 11:14:08;;;;;;;8.68;3.05;;;;;;;24.73;24.74;97021.59;4998109;28;20553;-33
2021/03/07 11:16:33;;;;;;;8.82;3.05;;;;;;;24.77;24.74;97029.25;5003855;28;20045;-36
2021/03/07 11:18:59;;;;;;;10.18;3.33;;;;;;;24.81;24.86;97019.47;5003185;28;20034;-32
2021/03/07 11:21:24;;;;;;;9.93;3.38;;;;;;;24.84;25.25;97015.91;4999451;28;20027;-33
2021/03/07 11:23:50;;;;;;;7.07;2.75;;;;;;;24.88;25.18;97020.09;5006363;28;20032;-32
2021/03/07 11:26:15;;;;;;;10.40;3.05;;;;;;;24.92;25.04;97019.03;5001056;28;20061;-33
2021/03/07 11:28:43;;;;;;;11.23;3.10;;;;;;;24.94;25.42;97009.31;5006532;28;20026;-33
2021/03/07 11:31:08;;;;;;;8.02;3.08;;;;;;;24.97;25.26;97003.94;5004484;28;20053;-33
2021/03/07 11:33:33;;;;;;;8.10;3.28;;;;;;;25.00;25.38;97006.41;4988390;28;20107;-32
2021/03/07 11:35:59;;;;;;;10.90;3.10;;;;;;;25.03;25.42;97008.03;4999843;28;20026;-32
2021/03/07 11:38:24;;;;;;;6.03;2.60;;;;;;;25.06;25.70;97000.03;5002736;28;20034;-30